Ana Sayfa
METAR-TAF:

METAR-TAF

Havaalanları :

Çongçing Jiangbei Uluslararası Havalimanı

Çongçing, Çin

Enlem: 29-31N, Boylam: 106-29E, yükseklik: 351 m

Güncel hava durumu gözlemi

Rapor saat 05:00 UTC de 1 saat ve 5 dakika önce yapıldı.
Rüzgar kuzeydan 10 kt
Sıcaklık 14°C
Nem 82%
Basınç 1016 hPa
Görüş mesafesi 10 km veya daha fazla
5000 ft yükseklikte parçalı bulutlu

METAR: ZUCK 010500Z 01005MPS 9999 SCT050 14/11 Q1016 NOSIG

Saat: 14:05 (06:05 UTC)

Tahmin

Rapor saat 03:05 UTC de 3 saat ve 0 dakika önce yapıldı.
Ayın 01'si saat 06 UTC'den ayın 02'si saat 06 UTC'ye kadar geçerli Tahmin
Rüzgar kuzey/kuzeydoğudan 6 kt
Görüş mesafesi: 6000 m
5000 ft yükseklikte parçalı bulutlu

TAF: ZUCK 010305Z 0106/0206 03003MPS 6000 SCT050 TX17/0108Z TN12/0121Z

4.000'den fazla havaalanı için hava durumu gözlemleri ve tahminleri (METAR ve TAF raporları).

Kullanılabilir istasyonlar harita üzerinde sarı ve kırmızı noktalarla gösterilir.

İstasyonun adını görmek için fareyi noktanın üzerinde gezdirin.

Sonrasında hava gözlem ve tahminlerini görmek için tıklayın.

Haritayı değiştirmek için: yaklaştırmak için siyah artı işaretli yeşil düğmeye ve uzaklaştırmak için de eksi işaretli düğmeye hızla tıklayın; bitişik haritalar için yeşil okları kullanın.


METAR-TAF: